sensor_id;sensor_type;location;lat;lon;timestamp;P1;durP1;ratioP1;P2;durP2;ratioP2
78716;SDS011;68045;50.042;14.432;2023-05-15T00:00:35;12.00;;;6.90;;
78716;SDS011;68045;50.042;14.432;2023-05-15T00:04:57;10.68;;;6.97;;
78716;SDS011;68045;50.042;14.432;2023-05-15T00:08:57;10.05;;;5.57;;
78716;SDS011;68045;50.042;14.432;2023-05-15T00:12:58;10.52;;;6.18;;
78716;SDS011;68045;50.042;14.432;2023-05-15T00:16:59;7.72;;;5.30;;
78716;SDS011;68045;50.042;14.432;2023-05-15T00:21:00;9.10;;;5.05;;
78716;SDS011;68045;50.042;14.432;2023-05-15T00:25:01;7.88;;;5.30;;
78716;SDS011;68045;50.042;14.432;2023-05-15T00:29:02;11.73;;;4.95;;
78716;SDS011;68045;50.042;14.432;2023-05-15T00:33:03;9.02;;;5.18;;
78716;SDS011;68045;50.042;14.432;2023-05-15T00:37:04;6.93;;;4.90;;
78716;SDS011;68045;50.042;14.432;2023-05-15T00:41:05;6.88;;;5.00;;
78716;SDS011;68045;50.042;14.432;2023-05-15T00:45:07;10.30;;;5.38;;
78716;SDS011;68045;50.042;14.432;2023-05-15T00:49:09;9.43;;;5.30;;
78716;SDS011;68045;50.042;14.432;2023-05-15T00:53:14;8.13;;;5.50;;
78716;SDS011;68045;50.042;14.432;2023-05-15T00:57:15;10.15;;;6.10;;
78716;SDS011;68045;50.042;14.432;2023-05-15T01:05:47;9.05;;;5.85;;
78716;SDS011;68045;50.042;14.432;2023-05-15T01:09:48;8.63;;;5.72;;
78716;SDS011;68045;50.042;14.432;2023-05-15T01:13:50;7.72;;;5.20;;
78716;SDS011;68045;50.042;14.432;2023-05-15T01:17:51;8.82;;;5.97;;
78716;SDS011;68045;50.042;14.432;2023-05-15T01:30:52;8.23;;;5.40;;
78716;SDS011;68045;50.042;14.432;2023-05-15T01:39:11;9.65;;;5.32;;
78716;SDS011;68045;50.042;14.432;2023-05-15T01:43:21;10.88;;;5.63;;
78716;SDS011;68045;50.042;14.432;2023-05-15T01:47:48;10.38;;;6.00;;
78716;SDS011;68045;50.042;14.432;2023-05-15T01:51:49;8.65;;;5.15;;
78716;SDS011;68045;50.042;14.432;2023-05-15T01:55:55;9.82;;;5.53;;
78716;SDS011;68045;50.042;14.432;2023-05-15T01:59:57;8.93;;;5.93;;
78716;SDS011;68045;50.042;14.432;2023-05-15T02:04:00;8.07;;;5.18;;
78716;SDS011;68045;50.042;14.432;2023-05-15T02:08:02;10.02;;;5.43;;
78716;SDS011;68045;50.042;14.432;2023-05-15T02:12:04;8.65;;;5.30;;
78716;SDS011;68045;50.042;14.432;2023-05-15T02:16:06;10.40;;;5.60;;
78716;SDS011;68045;50.042;14.432;2023-05-15T02:20:07;11.02;;;5.70;;
78716;SDS011;68045;50.042;14.432;2023-05-15T02:24:11;9.70;;;5.60;;
78716;SDS011;68045;50.042;14.432;2023-05-15T02:28:16;8.52;;;5.50;;
78716;SDS011;68045;50.042;14.432;2023-05-15T02:32:28;8.20;;;4.75;;
78716;SDS011;68045;50.042;14.432;2023-05-15T02:36:36;9.05;;;5.38;;
78716;SDS011;68045;50.042;14.432;2023-05-15T02:40:41;8.50;;;5.63;;
78716;SDS011;68045;50.042;14.432;2023-05-15T02:44:44;9.13;;;5.63;;
78716;SDS011;68045;50.042;14.432;2023-05-15T02:48:47;8.15;;;5.32;;
78716;SDS011;68045;50.042;14.432;2023-05-15T02:56:49;9.43;;;5.68;;
78716;SDS011;68045;50.042;14.432;2023-05-15T03:00:50;10.93;;;4.95;;
78716;SDS011;68045;50.042;14.432;2023-05-15T03:04:51;8.23;;;5.38;;
78716;SDS011;68045;50.042;14.432;2023-05-15T03:08:52;8.40;;;5.50;;
78716;SDS011;68045;50.042;14.432;2023-05-15T03:12:54;8.23;;;5.07;;
78716;SDS011;68045;50.042;14.432;2023-05-15T03:16:57;8.98;;;5.10;;
78716;SDS011;68045;50.042;14.432;2023-05-15T03:20:58;10.70;;;5.18;;
78716;SDS011;68045;50.042;14.432;2023-05-15T03:25:00;9.18;;;5.50;;
78716;SDS011;68045;50.042;14.432;2023-05-15T03:29:01;9.68;;;5.80;;
78716;SDS011;68045;50.042;14.432;2023-05-15T03:33:02;10.27;;;5.72;;
78716;SDS011;68045;50.042;14.432;2023-05-15T03:37:03;8.82;;;5.97;;
78716;SDS011;68045;50.042;14.432;2023-05-15T03:41:04;8.95;;;5.57;;
78716;SDS011;68045;50.042;14.432;2023-05-15T03:45:06;12.60;;;6.28;;
78716;SDS011;68045;50.042;14.432;2023-05-15T03:49:07;10.07;;;6.78;;
78716;SDS011;68045;50.042;14.432;2023-05-15T03:53:11;12.15;;;7.53;;
78716;SDS011;68045;50.042;14.432;2023-05-15T03:57:12;10.93;;;7.30;;
78716;SDS011;68045;50.042;14.432;2023-05-15T04:01:13;14.23;;;7.90;;
78716;SDS011;68045;50.042;14.432;2023-05-15T04:05:14;15.80;;;8.35;;
78716;SDS011;68045;50.042;14.432;2023-05-15T04:09:15;12.27;;;7.85;;
78716;SDS011;68045;50.042;14.432;2023-05-15T04:13:16;12.32;;;7.63;;
78716;SDS011;68045;50.042;14.432;2023-05-15T04:17:17;12.70;;;7.53;;
78716;SDS011;68045;50.042;14.432;2023-05-15T04:21:18;13.18;;;7.63;;
78716;SDS011;68045;50.042;14.432;2023-05-15T04:25:19;11.65;;;7.15;;
78716;SDS011;68045;50.042;14.432;2023-05-15T04:29:20;14.13;;;7.10;;
78716;SDS011;68045;50.042;14.432;2023-05-15T04:33:21;9.68;;;6.35;;
78716;SDS011;68045;50.042;14.432;2023-05-15T04:37:22;10.65;;;6.95;;
78716;SDS011;68045;50.042;14.432;2023-05-15T04:41:22;16.90;;;6.28;;
78716;SDS011;68045;50.042;14.432;2023-05-15T04:45:23;10.85;;;7.22;;
78716;SDS011;68045;50.042;14.432;2023-05-15T04:49:24;10.65;;;6.13;;
78716;SDS011;68045;50.042;14.432;2023-05-15T04:53:25;9.60;;;5.53;;
78716;SDS011;68045;50.042;14.432;2023-05-15T04:57:26;10.32;;;5.90;;
78716;SDS011;68045;50.042;14.432;2023-05-15T05:01:27;10.65;;;6.40;;
78716;SDS011;68045;50.042;14.432;2023-05-15T05:05:28;11.90;;;5.70;;
78716;SDS011;68045;50.042;14.432;2023-05-15T05:09:29;9.40;;;5.82;;
78716;SDS011;68045;50.042;14.432;2023-05-15T05:13:30;9.82;;;5.55;;
78716;SDS011;68045;50.042;14.432;2023-05-15T05:17:31;10.45;;;5.80;;
78716;SDS011;68045;50.042;14.432;2023-05-15T05:21:32;8.63;;;5.80;;
78716;SDS011;68045;50.042;14.432;2023-05-15T05:25:33;9.80;;;5.57;;
78716;SDS011;68045;50.042;14.432;2023-05-15T05:29:34;9.52;;;5.28;;
78716;SDS011;68045;50.042;14.432;2023-05-15T05:33:35;8.40;;;5.45;;
78716;SDS011;68045;50.042;14.432;2023-05-15T05:37:36;7.60;;;4.53;;
78716;SDS011;68045;50.042;14.432;2023-05-15T05:41:37;10.57;;;5.38;;
78716;SDS011;68045;50.042;14.432;2023-05-15T05:45:37;9.05;;;5.10;;
78716;SDS011;68045;50.042;14.432;2023-05-15T05:49:39;8.85;;;5.07;;
78716;SDS011;68045;50.042;14.432;2023-05-15T05:53:40;7.60;;;4.53;;
78716;SDS011;68045;50.042;14.432;2023-05-15T05:57:41;12.05;;;4.47;;
78716;SDS011;68045;50.042;14.432;2023-05-15T06:01:42;7.18;;;4.75;;
78716;SDS011;68045;50.042;14.432;2023-05-15T06:05:43;7.30;;;4.35;;
78716;SDS011;68045;50.042;14.432;2023-05-15T06:09:44;8.13;;;4.40;;
78716;SDS011;68045;50.042;14.432;2023-05-15T06:13:46;9.90;;;4.90;;
78716;SDS011;68045;50.042;14.432;2023-05-15T06:17:47;8.77;;;4.60;;
78716;SDS011;68045;50.042;14.432;2023-05-15T06:21:48;9.45;;;4.70;;
78716;SDS011;68045;50.042;14.432;2023-05-15T06:25:49;7.93;;;5.00;;
78716;SDS011;68045;50.042;14.432;2023-05-15T06:29:50;7.65;;;4.80;;
78716;SDS011;68045;50.042;14.432;2023-05-15T06:33:51;7.43;;;4.47;;
78716;SDS011;68045;50.042;14.432;2023-05-15T06:37:52;6.70;;;4.60;;
78716;SDS011;68045;50.042;14.432;2023-05-15T06:41:52;7.65;;;5.00;;
78716;SDS011;68045;50.042;14.432;2023-05-15T06:45:57;6.30;;;4.32;;
78716;SDS011;68045;50.042;14.432;2023-05-15T06:49:58;8.07;;;4.63;;
78716;SDS011;68045;50.042;14.432;2023-05-15T06:53:58;8.52;;;5.50;;
78716;SDS011;68045;50.042;14.432;2023-05-15T06:58:00;9.25;;;4.53;;
78716;SDS011;68045;50.042;14.432;2023-05-15T07:02:03;7.90;;;4.78;;
78716;SDS011;68045;50.042;14.432;2023-05-15T07:06:05;7.22;;;4.90;;
78716;SDS011;68045;50.042;14.432;2023-05-15T07:10:06;7.72;;;4.63;;
78716;SDS011;68045;50.042;14.432;2023-05-15T07:14:08;6.28;;;4.30;;
78716;SDS011;68045;50.042;14.432;2023-05-15T07:18:09;7.82;;;4.57;;
78716;SDS011;68045;50.042;14.432;2023-05-15T07:22:10;7.00;;;4.60;;
78716;SDS011;68045;50.042;14.432;2023-05-15T07:26:12;9.10;;;4.45;;
78716;SDS011;68045;50.042;14.432;2023-05-15T07:30:13;6.28;;;4.28;;
78716;SDS011;68045;50.042;14.432;2023-05-15T07:34:14;6.00;;;4.25;;
78716;SDS011;68045;50.042;14.432;2023-05-15T07:38:15;9.65;;;4.65;;
78716;SDS011;68045;50.042;14.432;2023-05-15T07:42:16;6.90;;;4.45;;
78716;SDS011;68045;50.042;14.432;2023-05-15T07:46:17;7.72;;;5.47;;
78716;SDS011;68045;50.042;14.432;2023-05-15T07:50:18;8.32;;;4.63;;
78716;SDS011;68045;50.042;14.432;2023-05-15T07:54:19;9.88;;;4.45;;
78716;SDS011;68045;50.042;14.432;2023-05-15T07:58:20;6.15;;;4.45;;
78716;SDS011;68045;50.042;14.432;2023-05-15T08:02:21;9.77;;;4.75;;
78716;SDS011;68045;50.042;14.432;2023-05-15T08:06:21;6.70;;;4.63;;
78716;SDS011;68045;50.042;14.432;2023-05-15T08:10:22;9.88;;;5.10;;
78716;SDS011;68045;50.042;14.432;2023-05-15T08:14:23;6.28;;;4.50;;
78716;SDS011;68045;50.042;14.432;2023-05-15T08:18:24;7.63;;;5.05;;
78716;SDS011;68045;50.042;14.432;2023-05-15T08:22:25;5.53;;;4.18;;
78716;SDS011;68045;50.042;14.432;2023-05-15T08:26:26;6.53;;;3.97;;
78716;SDS011;68045;50.042;14.432;2023-05-15T08:30:27;5.20;;;4.13;;
78716;SDS011;68045;50.042;14.432;2023-05-15T08:34:28;5.45;;;3.88;;
78716;SDS011;68045;50.042;14.432;2023-05-15T08:38:29;5.55;;;4.00;;
78716;SDS011;68045;50.042;14.432;2023-05-15T08:42:31;6.80;;;3.92;;
78716;SDS011;68045;50.042;14.432;2023-05-15T08:46:42;6.30;;;4.00;;
78716;SDS011;68045;50.042;14.432;2023-05-15T08:50:43;6.93;;;3.95;;
78716;SDS011;68045;50.042;14.432;2023-05-15T08:54:44;4.90;;;3.70;;
78716;SDS011;68045;50.042;14.432;2023-05-15T08:58:47;5.40;;;3.90;;
78716;SDS011;68045;50.042;14.432;2023-05-15T09:02:49;6.00;;;4.22;;
78716;SDS011;68045;50.042;14.432;2023-05-15T09:06:50;5.63;;;3.50;;
78716;SDS011;68045;50.042;14.432;2023-05-15T09:10:52;6.72;;;4.30;;
78716;SDS011;68045;50.042;14.432;2023-05-15T09:15:08;6.57;;;3.80;;
78716;SDS011;68045;50.042;14.432;2023-05-15T09:19:11;5.18;;;3.65;;
78716;SDS011;68045;50.042;14.432;2023-05-15T09:23:21;5.38;;;3.92;;
78716;SDS011;68045;50.042;14.432;2023-05-15T09:27:24;6.95;;;4.13;;
78716;SDS011;68045;50.042;14.432;2023-05-15T09:31:25;6.03;;;3.90;;
78716;SDS011;68045;50.042;14.432;2023-05-15T09:35:34;6.40;;;4.20;;
78716;SDS011;68045;50.042;14.432;2023-05-15T09:39:41;7.18;;;4.32;;
78716;SDS011;68045;50.042;14.432;2023-05-15T09:43:43;9.20;;;3.92;;
78716;SDS011;68045;50.042;14.432;2023-05-15T09:47:44;6.78;;;4.30;;
78716;SDS011;68045;50.042;14.432;2023-05-15T09:51:46;8.50;;;4.80;;
78716;SDS011;68045;50.042;14.432;2023-05-15T09:55:48;8.55;;;4.20;;
78716;SDS011;68045;50.042;14.432;2023-05-15T09:59:50;6.50;;;4.00;;
78716;SDS011;68045;50.042;14.432;2023-05-15T10:03:58;6.10;;;3.80;;
78716;SDS011;68045;50.042;14.432;2023-05-15T10:08:01;6.55;;;4.47;;
78716;SDS011;68045;50.042;14.432;2023-05-15T10:12:02;6.70;;;4.20;;
78716;SDS011;68045;50.042;14.432;2023-05-15T10:16:04;5.68;;;4.07;;
78716;SDS011;68045;50.042;14.432;2023-05-15T10:20:06;6.13;;;4.55;;
78716;SDS011;68045;50.042;14.432;2023-05-15T10:24:07;5.15;;;3.58;;
78716;SDS011;68045;50.042;14.432;2023-05-15T10:28:10;5.85;;;3.20;;
78716;SDS011;68045;50.042;14.432;2023-05-15T10:32:11;4.95;;;3.25;;
78716;SDS011;68045;50.042;14.432;2023-05-15T10:36:13;4.13;;;3.13;;
78716;SDS011;68045;50.042;14.432;2023-05-15T10:40:15;5.20;;;3.50;;
78716;SDS011;68045;50.042;14.432;2023-05-15T10:44:17;3.90;;;3.00;;
78716;SDS011;68045;50.042;14.432;2023-05-15T10:48:19;4.10;;;3.10;;
78716;SDS011;68045;50.042;14.432;2023-05-15T10:56:29;5.05;;;3.40;;
78716;SDS011;68045;50.042;14.432;2023-05-15T11:00:30;5.28;;;3.30;;
78716;SDS011;68045;50.042;14.432;2023-05-15T11:04:31;4.28;;;3.33;;
78716;SDS011;68045;50.042;14.432;2023-05-15T11:08:33;5.07;;;2.90;;
78716;SDS011;68045;50.042;14.432;2023-05-15T11:12:56;3.88;;;2.90;;
78716;SDS011;68045;50.042;14.432;2023-05-15T11:16:58;7.05;;;3.25;;
78716;SDS011;68045;50.042;14.432;2023-05-15T11:25:05;4.20;;;2.75;;
78716;SDS011;68045;50.042;14.432;2023-05-15T11:29:17;7.85;;;3.67;;
78716;SDS011;68045;50.042;14.432;2023-05-15T11:33:18;4.68;;;3.42;;
78716;SDS011;68045;50.042;14.432;2023-05-15T11:37:20;6.20;;;3.58;;
78716;SDS011;68045;50.042;14.432;2023-05-15T11:41:23;4.68;;;3.53;;
78716;SDS011;68045;50.042;14.432;2023-05-15T11:45:38;14.85;;;8.18;;
78716;SDS011;68045;50.042;14.432;2023-05-15T11:49:40;7.63;;;4.70;;
78716;SDS011;68045;50.042;14.432;2023-05-15T11:53:41;5.03;;;3.17;;
78716;SDS011;68045;50.042;14.432;2023-05-15T11:57:44;4.97;;;3.30;;
78716;SDS011;68045;50.042;14.432;2023-05-15T12:01:46;4.78;;;3.55;;
78716;SDS011;68045;50.042;14.432;2023-05-15T12:05:47;8.13;;;3.80;;
78716;SDS011;68045;50.042;14.432;2023-05-15T12:09:50;8.93;;;3.90;;
78716;SDS011;68045;50.042;14.432;2023-05-15T12:13:52;5.32;;;3.55;;
78716;SDS011;68045;50.042;14.432;2023-05-15T12:17:53;8.07;;;4.47;;
78716;SDS011;68045;50.042;14.432;2023-05-15T12:21:54;5.65;;;4.20;;
78716;SDS011;68045;50.042;14.432;2023-05-15T12:25:57;6.80;;;4.30;;
78716;SDS011;68045;50.042;14.432;2023-05-15T12:30:00;8.27;;;5.85;;
78716;SDS011;68045;50.042;14.432;2023-05-15T12:34:01;7.18;;;5.70;;
78716;SDS011;68045;50.042;14.432;2023-05-15T12:38:03;6.53;;;4.43;;
78716;SDS011;68045;50.042;14.432;2023-05-15T12:42:04;7.05;;;4.82;;
78716;SDS011;68045;50.042;14.432;2023-05-15T12:46:05;6.68;;;4.53;;
78716;SDS011;68045;50.042;14.432;2023-05-15T12:50:17;7.20;;;4.32;;
78716;SDS011;68045;50.042;14.432;2023-05-15T12:54:19;4.20;;;3.58;;
78716;SDS011;68045;50.042;14.432;2023-05-15T12:58:21;6.07;;;3.95;;
78716;SDS011;68045;50.042;14.432;2023-05-15T13:06:23;6.47;;;4.28;;
78716;SDS011;68045;50.042;14.432;2023-05-15T13:10:24;6.38;;;5.07;;
78716;SDS011;68045;50.042;14.432;2023-05-15T13:14:26;8.05;;;4.15;;
78716;SDS011;68045;50.042;14.432;2023-05-15T13:18:29;7.07;;;4.38;;
78716;SDS011;68045;50.042;14.432;2023-05-15T13:22:29;6.10;;;4.03;;
78716;SDS011;68045;50.042;14.432;2023-05-15T13:26:30;9.55;;;5.05;;
78716;SDS011;68045;50.042;14.432;2023-05-15T13:30:32;8.00;;;5.13;;
78716;SDS011;68045;50.042;14.432;2023-05-15T13:34:34;8.15;;;4.68;;
78716;SDS011;68045;50.042;14.432;2023-05-15T13:38:35;7.53;;;4.57;;
78716;SDS011;68045;50.042;14.432;2023-05-15T13:42:36;7.00;;;4.47;;
78716;SDS011;68045;50.042;14.432;2023-05-15T13:46:39;6.22;;;4.43;;
78716;SDS011;68045;50.042;14.432;2023-05-15T13:50:40;5.00;;;4.00;;
78716;SDS011;68045;50.042;14.432;2023-05-15T13:58:43;4.90;;;3.05;;
78716;SDS011;68045;50.042;14.432;2023-05-15T14:02:44;8.02;;;4.07;;
78716;SDS011;68045;50.042;14.432;2023-05-15T14:06:45;5.05;;;3.72;;
78716;SDS011;68045;50.042;14.432;2023-05-15T14:10:46;6.38;;;4.10;;
78716;SDS011;68045;50.042;14.432;2023-05-15T14:14:47;7.03;;;4.15;;
78716;SDS011;68045;50.042;14.432;2023-05-15T14:18:47;5.05;;;3.90;;
78716;SDS011;68045;50.042;14.432;2023-05-15T14:22:48;6.30;;;4.07;;
78716;SDS011;68045;50.042;14.432;2023-05-15T14:26:49;4.85;;;3.92;;
78716;SDS011;68045;50.042;14.432;2023-05-15T14:30:50;4.95;;;3.83;;
78716;SDS011;68045;50.042;14.432;2023-05-15T14:34:51;5.97;;;3.88;;
78716;SDS011;68045;50.042;14.432;2023-05-15T14:38:52;7.40;;;4.22;;
78716;SDS011;68045;50.042;14.432;2023-05-15T14:42:52;5.00;;;3.90;;
78716;SDS011;68045;50.042;14.432;2023-05-15T14:51:12;6.43;;;4.35;;
78716;SDS011;68045;50.042;14.432;2023-05-15T14:55:13;6.25;;;4.82;;
78716;SDS011;68045;50.042;14.432;2023-05-15T14:59:14;5.22;;;4.22;;
78716;SDS011;68045;50.042;14.432;2023-05-15T15:03:15;7.55;;;4.57;;
78716;SDS011;68045;50.042;14.432;2023-05-15T15:07:16;6.72;;;4.82;;
78716;SDS011;68045;50.042;14.432;2023-05-15T15:11:17;5.38;;;4.28;;
78716;SDS011;68045;50.042;14.432;2023-05-15T15:15:19;6.43;;;5.70;;
78716;SDS011;68045;50.042;14.432;2023-05-15T15:19:20;9.82;;;5.50;;
78716;SDS011;68045;50.042;14.432;2023-05-15T15:27:23;10.55;;;5.53;;
78716;SDS011;68045;50.042;14.432;2023-05-15T15:31:24;5.93;;;4.57;;
78716;SDS011;68045;50.042;14.432;2023-05-15T15:35:25;7.63;;;5.03;;
78716;SDS011;68045;50.042;14.432;2023-05-15T15:39:26;6.65;;;4.47;;
78716;SDS011;68045;50.042;14.432;2023-05-15T15:43:26;7.38;;;4.88;;
78716;SDS011;68045;50.042;14.432;2023-05-15T15:47:27;9.40;;;5.47;;
78716;SDS011;68045;50.042;14.432;2023-05-15T15:51:30;10.23;;;5.22;;
78716;SDS011;68045;50.042;14.432;2023-05-15T15:55:31;8.07;;;5.93;;
78716;SDS011;68045;50.042;14.432;2023-05-15T15:59:32;7.90;;;5.60;;
78716;SDS011;68045;50.042;14.432;2023-05-15T16:03:33;9.10;;;5.97;;
78716;SDS011;68045;50.042;14.432;2023-05-15T16:07:34;11.27;;;5.65;;
78716;SDS011;68045;50.042;14.432;2023-05-15T16:11:35;7.57;;;5.80;;
78716;SDS011;68045;50.042;14.432;2023-05-15T16:15:35;8.68;;;5.50;;
78716;SDS011;68045;50.042;14.432;2023-05-15T16:19:36;8.80;;;5.38;;
78716;SDS011;68045;50.042;14.432;2023-05-15T16:23:38;8.32;;;5.32;;
78716;SDS011;68045;50.042;14.432;2023-05-15T16:27:42;8.15;;;5.07;;
78716;SDS011;68045;50.042;14.432;2023-05-15T16:31:43;8.15;;;5.47;;
78716;SDS011;68045;50.042;14.432;2023-05-15T16:35:44;6.88;;;5.00;;
78716;SDS011;68045;50.042;14.432;2023-05-15T16:39:45;6.25;;;4.53;;
78716;SDS011;68045;50.042;14.432;2023-05-15T16:43:46;11.32;;;5.45;;
78716;SDS011;68045;50.042;14.432;2023-05-15T16:47:50;8.80;;;5.70;;
78716;SDS011;68045;50.042;14.432;2023-05-15T16:51:51;6.97;;;5.00;;
78716;SDS011;68045;50.042;14.432;2023-05-15T16:55:52;6.32;;;5.35;;
78716;SDS011;68045;50.042;14.432;2023-05-15T16:59:53;7.93;;;5.28;;
78716;SDS011;68045;50.042;14.432;2023-05-15T17:03:54;10.98;;;5.47;;
78716;SDS011;68045;50.042;14.432;2023-05-15T17:07:56;6.38;;;5.00;;
78716;SDS011;68045;50.042;14.432;2023-05-15T17:11:57;8.65;;;5.60;;
78716;SDS011;68045;50.042;14.432;2023-05-15T17:15:59;7.75;;;5.18;;
78716;SDS011;68045;50.042;14.432;2023-05-15T17:20:00;6.03;;;4.95;;
78716;SDS011;68045;50.042;14.432;2023-05-15T17:24:01;7.53;;;5.05;;
78716;SDS011;68045;50.042;14.432;2023-05-15T17:28:02;7.50;;;5.70;;
78716;SDS011;68045;50.042;14.432;2023-05-15T17:32:02;6.63;;;4.90;;
78716;SDS011;68045;50.042;14.432;2023-05-15T17:36:04;6.55;;;5.40;;
78716;SDS011;68045;50.042;14.432;2023-05-15T17:40:05;5.80;;;5.10;;
78716;SDS011;68045;50.042;14.432;2023-05-15T17:44:06;8.95;;;5.80;;
78716;SDS011;68045;50.042;14.432;2023-05-15T17:48:08;8.60;;;5.78;;
78716;SDS011;68045;50.042;14.432;2023-05-15T17:52:09;10.52;;;6.55;;
78716;SDS011;68045;50.042;14.432;2023-05-15T17:56:09;6.65;;;5.22;;
78716;SDS011;68045;50.042;14.432;2023-05-15T18:00:10;7.22;;;5.35;;
78716;SDS011;68045;50.042;14.432;2023-05-15T18:04:14;7.35;;;5.28;;
78716;SDS011;68045;50.042;14.432;2023-05-15T18:08:15;7.45;;;5.32;;
78716;SDS011;68045;50.042;14.432;2023-05-15T18:12:16;8.15;;;6.03;;
78716;SDS011;68045;50.042;14.432;2023-05-15T18:16:17;11.32;;;5.75;;
78716;SDS011;68045;50.042;14.432;2023-05-15T18:20:18;7.30;;;5.38;;
78716;SDS011;68045;50.042;14.432;2023-05-15T18:24:19;7.70;;;5.30;;
78716;SDS011;68045;50.042;14.432;2023-05-15T18:28:20;7.07;;;5.70;;
78716;SDS011;68045;50.042;14.432;2023-05-15T18:32:21;8.90;;;5.55;;
78716;SDS011;68045;50.042;14.432;2023-05-15T18:36:21;10.25;;;6.50;;
78716;SDS011;68045;50.042;14.432;2023-05-15T18:40:23;8.27;;;5.50;;
78716;SDS011;68045;50.042;14.432;2023-05-15T18:44:26;8.93;;;6.13;;
78716;SDS011;68045;50.042;14.432;2023-05-15T18:48:27;9.27;;;5.40;;
78716;SDS011;68045;50.042;14.432;2023-05-15T18:52:28;10.23;;;5.68;;
78716;SDS011;68045;50.042;14.432;2023-05-15T18:56:29;12.23;;;5.90;;
78716;SDS011;68045;50.042;14.432;2023-05-15T19:00:30;9.00;;;5.60;;
78716;SDS011;68045;50.042;14.432;2023-05-15T19:04:31;9.90;;;6.05;;
78716;SDS011;68045;50.042;14.432;2023-05-15T19:08:32;10.63;;;6.18;;
78716;SDS011;68045;50.042;14.432;2023-05-15T19:12:33;9.15;;;6.32;;
78716;SDS011;68045;50.042;14.432;2023-05-15T19:16:34;9.40;;;6.60;;
78716;SDS011;68045;50.042;14.432;2023-05-15T19:20:35;11.18;;;7.13;;
78716;SDS011;68045;50.042;14.432;2023-05-15T19:24:36;12.18;;;7.28;;
78716;SDS011;68045;50.042;14.432;2023-05-15T19:28:37;9.65;;;7.05;;
78716;SDS011;68045;50.042;14.432;2023-05-15T19:32:38;9.07;;;6.97;;
78716;SDS011;68045;50.042;14.432;2023-05-15T19:36:39;10.60;;;7.65;;
78716;SDS011;68045;50.042;14.432;2023-05-15T19:40:41;9.23;;;6.90;;
78716;SDS011;68045;50.042;14.432;2023-05-15T19:44:43;9.85;;;6.93;;
78716;SDS011;68045;50.042;14.432;2023-05-15T19:48:44;13.48;;;7.97;;
78716;SDS011;68045;50.042;14.432;2023-05-15T19:52:45;9.10;;;7.05;;
78716;SDS011;68045;50.042;14.432;2023-05-15T19:56:47;11.18;;;7.50;;
78716;SDS011;68045;50.042;14.432;2023-05-15T20:00:50;12.40;;;7.78;;
78716;SDS011;68045;50.042;14.432;2023-05-15T20:04:52;12.75;;;7.28;;
78716;SDS011;68045;50.042;14.432;2023-05-15T20:08:53;16.98;;;7.90;;
78716;SDS011;68045;50.042;14.432;2023-05-15T20:12:54;10.77;;;7.03;;
78716;SDS011;68045;50.042;14.432;2023-05-15T20:16:55;10.13;;;7.40;;
78716;SDS011;68045;50.042;14.432;2023-05-15T20:20:56;10.43;;;7.68;;
78716;SDS011;68045;50.042;14.432;2023-05-15T20:24:56;10.98;;;7.90;;
78716;SDS011;68045;50.042;14.432;2023-05-15T20:28:57;10.43;;;7.60;;
78716;SDS011;68045;50.042;14.432;2023-05-15T20:32:58;11.02;;;7.32;;
78716;SDS011;68045;50.042;14.432;2023-05-15T20:36:59;12.05;;;7.40;;
78716;SDS011;68045;50.042;14.432;2023-05-15T20:41:00;10.85;;;7.70;;
78716;SDS011;68045;50.042;14.432;2023-05-15T20:45:00;11.57;;;7.65;;
78716;SDS011;68045;50.042;14.432;2023-05-15T20:49:01;12.05;;;7.80;;
78716;SDS011;68045;50.042;14.432;2023-05-15T20:53:02;10.30;;;7.28;;
78716;SDS011;68045;50.042;14.432;2023-05-15T20:57:03;14.30;;;8.13;;
78716;SDS011;68045;50.042;14.432;2023-05-15T21:01:05;13.80;;;8.35;;
78716;SDS011;68045;50.042;14.432;2023-05-15T21:05:06;11.65;;;8.57;;
78716;SDS011;68045;50.042;14.432;2023-05-15T21:09:07;15.43;;;8.68;;
78716;SDS011;68045;50.042;14.432;2023-05-15T21:13:08;13.13;;;8.02;;
78716;SDS011;68045;50.042;14.432;2023-05-15T21:17:09;13.15;;;8.63;;
78716;SDS011;68045;50.042;14.432;2023-05-15T21:21:10;16.45;;;8.65;;
78716;SDS011;68045;50.042;14.432;2023-05-15T21:25:11;11.82;;;8.43;;
78716;SDS011;68045;50.042;14.432;2023-05-15T21:29:12;10.13;;;7.32;;
78716;SDS011;68045;50.042;14.432;2023-05-15T21:33:13;11.63;;;7.95;;
78716;SDS011;68045;50.042;14.432;2023-05-15T21:37:14;11.75;;;7.65;;
78716;SDS011;68045;50.042;14.432;2023-05-15T21:41:15;12.70;;;7.78;;
78716;SDS011;68045;50.042;14.432;2023-05-15T21:45:16;12.65;;;8.15;;
78716;SDS011;68045;50.042;14.432;2023-05-15T21:49:17;11.35;;;7.97;;
78716;SDS011;68045;50.042;14.432;2023-05-15T21:53:18;11.45;;;7.65;;
78716;SDS011;68045;50.042;14.432;2023-05-15T21:57:19;12.95;;;8.65;;
78716;SDS011;68045;50.042;14.432;2023-05-15T22:01:20;11.35;;;8.13;;
78716;SDS011;68045;50.042;14.432;2023-05-15T22:05:21;11.60;;;8.15;;
78716;SDS011;68045;50.042;14.432;2023-05-15T22:09:21;12.32;;;8.50;;
78716;SDS011;68045;50.042;14.432;2023-05-15T22:13:22;15.25;;;8.13;;
78716;SDS011;68045;50.042;14.432;2023-05-15T22:17:23;11.27;;;7.68;;
78716;SDS011;68045;50.042;14.432;2023-05-15T22:21:26;12.50;;;7.93;;
78716;SDS011;68045;50.042;14.432;2023-05-15T22:25:27;15.23;;;8.45;;
78716;SDS011;68045;50.042;14.432;2023-05-15T22:29:28;11.43;;;8.13;;
78716;SDS011;68045;50.042;14.432;2023-05-15T22:33:29;16.23;;;8.10;;
78716;SDS011;68045;50.042;14.432;2023-05-15T22:37:30;12.73;;;7.32;;
78716;SDS011;68045;50.042;14.432;2023-05-15T22:41:31;10.35;;;7.25;;
78716;SDS011;68045;50.042;14.432;2023-05-15T22:45:31;12.20;;;8.20;;
78716;SDS011;68045;50.042;14.432;2023-05-15T22:49:32;14.48;;;8.73;;
78716;SDS011;68045;50.042;14.432;2023-05-15T22:53:33;11.15;;;7.90;;
78716;SDS011;68045;50.042;14.432;2023-05-15T22:57:34;12.98;;;8.23;;
78716;SDS011;68045;50.042;14.432;2023-05-15T23:01:36;12.90;;;7.85;;
78716;SDS011;68045;50.042;14.432;2023-05-15T23:05:36;13.35;;;7.53;;
78716;SDS011;68045;50.042;14.432;2023-05-15T23:09:37;14.70;;;8.63;;
78716;SDS011;68045;50.042;14.432;2023-05-15T23:13:38;11.93;;;7.78;;
78716;SDS011;68045;50.042;14.432;2023-05-15T23:17:39;10.85;;;7.63;;
78716;SDS011;68045;50.042;14.432;2023-05-15T23:21:40;11.68;;;7.90;;
78716;SDS011;68045;50.042;14.432;2023-05-15T23:25:41;11.90;;;8.57;;
78716;SDS011;68045;50.042;14.432;2023-05-15T23:29:42;12.38;;;8.18;;
78716;SDS011;68045;50.042;14.432;2023-05-15T23:33:43;15.45;;;8.25;;
78716;SDS011;68045;50.042;14.432;2023-05-15T23:37:44;14.77;;;8.18;;
78716;SDS011;68045;50.042;14.432;2023-05-15T23:41:45;11.57;;;8.20;;
78716;SDS011;68045;50.042;14.432;2023-05-15T23:45:46;11.82;;;8.13;;
78716;SDS011;68045;50.042;14.432;2023-05-15T23:49:46;14.40;;;8.13;;
78716;SDS011;68045;50.042;14.432;2023-05-15T23:53:48;12.05;;;8.52;;
78716;SDS011;68045;50.042;14.432;2023-05-15T23:57:49;14.57;;;8.65;;
